THUNDERSTORM

Not for real navigation. The accuracy of this data is not assured See disclaimer for more information



ICAO NAME COUNTRY WIND Kt GUST Kt VIS m TEMP/DEW C BARO METAR
KQEL 1 0 400 24/24 29.87 KQEL 281200Z AUTO 02001KT 0400 BCFG OVC018 24/24 A2987 RMK A02 TS
KQEV 1 0 400 27/25 29.74 KQEV 281220Z AUTO 05001KT 0400 FG OVC017 27/25 A2974 RMK A02 TS
PAPB ST. GEORGE AIRPORT AK United States 9 0 400 0/0 29.94 PAPB 281153Z AUTO 25009KT 0.25SM FG VV001 A2994 RMK AO2 SLPNO 70002 58010 FZRANO TS $
PADQ KODIAK AIRPORT AK United States 3 0 400 11/11 30.00 PADQ 281153Z AUTO 05003KT 0.25SM FG VV002 11/11 A3000 RMK AO2 SLP158 70001 T01060106 10128 20094 560
PABA Barter Island, Barter Island L AK United States 18 0 400 7/7 29.86 PABA 281152Z AUTO 09018KT 0.25SM -RA FG OVC003 07/07 A2986 RMK AO2 SLP098 P0000 60000 T00670067 1007

Show more